Time;durP1;ratioP1;P1;durP2;ratioP2;P2;SDS_P1;SDS_P2;PMS_P1;PMS_P2;Temp;Humidity;BMP_temperature;BMP_pressure;BME280_temperature;BME280_humidity;BME280_pressure;Samples;Min_cycle;Max_cycle;Signal;HPM_P1;HPM_P2
2021/09/28 00:01:44;;;;;;;;;;;;;;;15.52;100.00;101178.41;4994415;28;19965;-76
2021/09/28 00:04:10;;;;;;;;;;;;;;;15.48;100.00;101171.50;4994723;28;19983;-76
2021/09/28 00:06:38;;;;;;;;;;;;;;;15.45;100.00;101175.38;4994424;28;20360;-76
2021/09/28 00:09:04;;;;;;;;;;;;;;;15.39;100.00;101178.69;4994472;28;19969;-76
2021/09/28 00:11:31;;;;;;;;;;;;;;;15.38;100.00;101182.44;4994554;28;20379;-76
2021/09/28 00:13:58;;;;;;;;;;;;;;;15.33;100.00;101179.28;4994507;28;19956;-76
2021/09/28 00:16:24;;;;;;;;;;;;;;;15.30;100.00;101176.81;4994465;28;20317;-76
2021/09/28 00:18:51;;;;;;;;;;;;;;;15.28;100.00;101173.38;4994438;28;20916;-76
2021/09/28 00:21:17;;;;;;;;;;;;;;;15.28;100.00;101182.44;4994164;28;19980;-76
2021/09/28 00:23:45;;;;;;;;;;;;;;;15.22;100.00;101185.78;4994216;28;19968;-76
2021/09/28 00:26:11;;;;;;;;;;;;;;;15.14;100.00;101182.88;4994258;28;19940;-76
2021/09/28 00:28:37;;;;;;;;;;;;;;;15.15;100.00;101193.69;4992382;28;20019;-76
2021/09/28 00:31:04;;;;;;;;;;;;;;;15.14;100.00;101194.69;4994037;28;19926;-76
2021/09/28 00:33:30;;;;;;;;;;;;;;;15.08;100.00;101192.50;4994034;28;19973;-76
2021/09/28 00:35:57;;;;;;;;;;;;;;;15.06;100.00;101195.38;4994132;28;20344;-76
2021/09/28 00:38:23;;;;;;;;;;;;;;;15.02;100.00;101193.94;4994027;28;20020;-76
2021/09/28 00:40:51;;;;;;;;;;;;;;;15.03;100.00;101197.53;4993716;28;20585;-76
2021/09/28 00:43:17;;;;;;;;;;;;;;;15.01;100.00;101196.84;4993912;28;19926;-76
2021/09/28 00:45:44;;;;;;;;;;;;;;;14.92;100.00;101192.22;4993856;28;19930;-76
2021/09/28 00:48:10;;;;;;;;;;;;;;;14.89;100.00;101193.34;4993869;28;19929;-76
2021/09/28 00:50:36;;;;;;;;;;;;;;;14.87;100.00;101198.09;4993725;28;20443;-76
2021/09/28 00:53:03;;;;;;;;;;;;;;;14.85;100.00;101203.69;4993609;28;19925;-76
2021/09/28 00:55:30;;;;;;;;;;;;;;;14.81;100.00;101198.69;4992501;28;19926;-76
2021/09/28 00:58:02;;;;;;;;;;;;;;;14.77;100.00;101208.16;4996053;28;19926;-76
2021/09/28 01:00:28;;;;;;;;;;;;;;;14.72;100.00;101203.97;4992237;28;19933;-76
2021/09/28 01:03:05;;;;;;;;;;;;;;;14.66;100.00;101211.88;4993496;28;19957;-75
2021/09/28 01:05:31;;;;;;;;;;;;;;;14.62;100.00;101210.38;4993210;28;20469;-76
2021/09/28 01:07:57;;;;;;;;;;;;;;;14.59;100.00;101211.53;4992167;28;19927;-76
2021/09/28 01:10:24;;;;;;;;;;;;;;;14.57;100.00;101211.66;4993296;28;20020;-76
2021/09/28 01:12:50;;;;;;;;;;;;;;;14.60;100.00;101212.38;4993272;28;19968;-76
2021/09/28 01:15:17;;;;;;;;;;;;;;;14.67;100.00;101211.72;4993305;28;19960;-76
2021/09/28 01:17:44;;;;;;;;;;;;;;;14.70;100.00;101211.44;4993064;28;20033;-76
2021/09/28 01:20:11;;;;;;;;;;;;;;;14.77;100.00;101209.00;4991968;28;19937;-76
2021/09/28 01:22:38;;;;;;;;;;;;;;;14.83;100.00;101210.31;4993016;28;20047;-76
2021/09/28 01:25:05;;;;;;;;;;;;;;;14.92;100.00;101217.66;4993231;28;19961;-76
2021/09/28 01:27:35;;;;;;;;;;;;;;;14.95;100.00;101219.25;4992887;28;20021;-77
2021/09/28 01:30:01;;;;;;;;;;;;;;;15.00;100.00;101214.22;4993009;28;20028;-76
2021/09/28 01:32:27;;;;;;;;;;;;;;;15.00;100.00;101214.22;4992960;28;20025;-76
2021/09/28 01:34:54;;;;;;;;;;;;;;;15.01;100.00;101216.81;4992977;28;19957;-76
2021/09/28 01:37:20;;;;;;;;;;;;;;;14.98;100.00;101218.97;4992818;28;20457;-76
2021/09/28 01:39:47;;;;;;;;;;;;;;;14.92;100.00;101208.63;4992707;28;19953;-76
2021/09/28 01:42:14;;;;;;;;;;;;;;;14.91;100.00;101215.94;4992656;28;20048;-76
2021/09/28 01:44:40;;;;;;;;;;;;;;;14.90;100.00;101211.50;4991423;28;19932;-76
2021/09/28 01:47:06;;;;;;;;;;;;;;;14.87;100.00;101212.63;4992690;28;19936;-76
2021/09/28 01:49:34;;;;;;;;;;;;;;;14.83;100.00;101211.19;4992861;28;20361;-76
2021/09/28 01:52:02;;;;;;;;;;;;;;;14.86;100.00;101220.97;4990731;28;22563;-76
2021/09/28 01:54:28;;;;;;;;;;;;;;;14.88;100.00;101216.22;4992746;28;20021;-76
2021/09/28 01:56:56;;;;;;;;;;;;;;;14.90;100.00;101222.44;4992427;28;20453;-76
2021/09/28 01:59:22;;;;;;;;;;;;;;;14.93;100.00;101218.56;4992603;28;20032;-76
2021/09/28 02:01:48;;;;;;;;;;;;;;;14.94;100.00;101215.66;4992621;28;19933;-76
2021/09/28 02:04:14;;;;;;;;;;;;;;;14.96;100.00;101218.25;4991339;28;20016;-76
2021/09/28 02:06:41;;;;;;;;;;;;;;;14.98;100.00;101221.69;4992478;28;19972;-76
2021/09/28 02:09:08;;;;;;;;;;;;;;;15.03;100.00;101219.41;4992546;28;20037;-76
2021/09/28 02:11:35;;;;;;;;;;;;;;;15.04;100.00;101221.13;4992384;28;19993;-76
2021/09/28 02:14:03;;;;;;;;;;;;;;;15.05;100.00;101225.59;4992411;28;20044;-76
2021/09/28 02:16:30;;;;;;;;;;;;;;;15.09;100.00;101221.59;4992194;28;20016;-76
2021/09/28 02:18:56;;;;;;;;;;;;;;;15.13;100.00;101225.75;4992389;28;19969;-76
2021/09/28 02:21:23;;;;;;;;;;;;;;;15.13;100.00;101224.91;4992094;28;20008;-76
2021/09/28 02:23:49;;;;;;;;;;;;;;;15.14;100.00;101226.59;4992470;28;20452;-76
2021/09/28 02:26:16;;;;;;;;;;;;;;;15.16;100.00;101224.59;4992206;28;19926;-76
2021/09/28 02:28:42;;;;;;;;;;;;;;;15.17;100.00;101221.72;4992312;28;19933;-76
2021/09/28 02:31:10;;;;;;;;;;;;;;;15.18;100.00;101228.09;4992103;28;20025;-76
2021/09/28 02:33:36;;;;;;;;;;;;;;;15.17;100.00;101219.00;4992180;28;20364;-76
2021/09/28 02:36:02;;;;;;;;;;;;;;;15.19;100.00;101227.06;4991944;28;19957;-76
2021/09/28 02:38:28;;;;;;;;;;;;;;;15.18;100.00;101226.19;4992256;28;20016;-76
2021/09/28 02:40:55;;;;;;;;;;;;;;;15.16;100.00;101222.72;4992091;28;20407;-76
2021/09/28 02:43:21;;;;;;;;;;;;;;;15.17;100.00;101227.19;4991976;28;20031;-76
2021/09/28 02:45:50;;;;;;;;;;;;;;;15.17;100.00;101224.47;4992222;28;20309;-76
2021/09/28 02:48:18;;;;;;;;;;;;;;;15.16;100.00;101225.47;4992203;28;19933;-76
2021/09/28 02:50:44;;;;;;;;;;;;;;;15.14;100.00;101227.50;4991773;28;19969;-76
2021/09/28 02:53:11;;;;;;;;;;;;;;;15.11;100.00;101222.28;4994215;28;19965;-76
2021/09/28 02:55:37;;;;;;;;;;;;;;;15.10;100.00;101217.84;4995857;28;20024;-76
2021/09/28 02:58:03;;;;;;;;;;;;;;;15.11;100.00;101221.44;4998229;28;19948;-76
2021/09/28 03:00:29;;;;;;;;;;;;;;;15.12;100.00;101213.09;4995713;28;20360;-76
2021/09/28 03:02:56;;;;;;;;;;;;;;;15.11;100.00;101211.34;4995636;28;20020;-76
2021/09/28 03:05:23;;;;;;;;;;;;;;;15.09;100.00;101218.00;4995659;28;20028;-77
2021/09/28 03:07:50;;;;;;;;;;;;;;;15.07;100.00;101223.59;4995642;28;19972;-77
2021/09/28 03:10:16;;;;;;;;;;;;;;;15.10;100.00;101226.06;4995570;28;19960;-77
2021/09/28 03:12:42;;;;;;;;;;;;;;;15.10;100.00;101219.69;4995534;28;19960;-77
2021/09/28 03:15:09;;;;;;;;;;;;;;;15.12;100.00;101225.91;4995925;28;19969;-77
2021/09/28 03:17:35;;;;;;;;;;;;;;;15.10;100.00;101227.91;4995353;28;20016;-77
2021/09/28 03:20:01;;;;;;;;;;;;;;;15.18;100.00;101236.28;4995467;28;20032;-77
2021/09/28 03:22:29;;;;;;;;;;;;;;;15.21;100.00;101238.72;4995166;28;20033;-77
2021/09/28 03:24:55;;;;;;;;;;;;;;;15.26;100.00;101232.81;4995340;28;19969;-77
2021/09/28 03:27:22;;;;;;;;;;;;;;;15.31;100.00;101239.59;4995304;28;19973;-77
2021/09/28 03:29:48;;;;;;;;;;;;;;;15.33;100.00;101242.19;4995339;28;20029;-77
2021/09/28 03:32:14;;;;;;;;;;;;;;;15.35;100.00;101245.63;4995058;28;19964;-77
2021/09/28 03:34:40;;;;;;;;;;;;;;;15.35;100.00;101246.50;4995468;28;20016;-77
2021/09/28 03:37:07;;;;;;;;;;;;;;;15.36;100.00;101250.09;4995044;28;20032;-77
2021/09/28 03:39:34;;;;;;;;;;;;;;;15.38;100.00;101257.16;4993634;28;20020;-77
2021/09/28 03:42:01;;;;;;;;;;;;;;;15.39;100.00;101267.09;4995036;28;20025;-77
2021/09/28 03:44:27;;;;;;;;;;;;;;;15.40;100.00;101277.00;4993848;28;19930;-77
2021/09/28 03:46:53;;;;;;;;;;;;;;;15.40;100.00;101271.53;4994931;28;20016;-77
2021/09/28 03:49:19;;;;;;;;;;;;;;;15.40;100.00;101271.53;4994796;28;19957;-77
2021/09/28 03:51:46;;;;;;;;;;;;;;;15.41;100.00;101275.16;4994637;28;19933;-77
2021/09/28 03:54:12;;;;;;;;;;;;;;;15.42;100.00;101273.28;4994971;28;19936;-77
2021/09/28 03:56:40;;;;;;;;;;;;;;;15.42;100.00;101273.28;4993423;28;20398;-77
2021/09/28 03:59:06;;;;;;;;;;;;;;;15.40;100.00;101271.53;4994727;28;20020;-77
2021/09/28 04:01:33;;;;;;;;;;;;;;;15.41;100.00;101275.16;4994390;28;19937;-77
2021/09/28 04:04:00;;;;;;;;;;;;;;;15.39;100.00;101272.56;4993470;28;19941;-77
2021/09/28 04:06:26;;;;;;;;;;;;;;;15.39;100.00;101280.78;4994453;28;19972;-77
2021/09/28 04:08:52;;;;;;;;;;;;;;;15.39;100.00;101279.88;4994403;28;20037;-77
2021/09/28 04:11:18;;;;;;;;;;;;;;;15.39;100.00;101280.78;4994414;28;19980;-77
2021/09/28 04:13:47;;;;;;;;;;;;;;;15.39;100.00;101279.88;4994393;28;20421;-77
2021/09/28 04:16:16;;;;;;;;;;;;;;;15.39;100.00;101277.16;4993118;28;19932;-77
2021/09/28 04:18:42;;;;;;;;;;;;;;;15.38;100.00;101278.19;4994295;28;20336;-77
2021/09/28 04:21:08;;;;;;;;;;;;;;;15.39;100.00;101277.16;4993511;28;20035;-77
2021/09/28 04:23:35;;;;;;;;;;;;;;;15.39;100.00;101279.88;4994212;28;20371;-77
2021/09/28 04:26:02;;;;;;;;;;;;;;;15.37;100.00;101287.41;4994172;28;19969;-77
2021/09/28 04:28:29;;;;;;;;;;;;;;;15.38;100.00;101291.88;4994091;28;19926;-77
2021/09/28 04:30:56;;;;;;;;;;;;;;;15.40;100.00;101300.78;4994142;28;20014;-77
2021/09/28 04:33:23;;;;;;;;;;;;;;;15.40;100.00;101300.78;4994025;28;20024;-77
2021/09/28 04:35:49;;;;;;;;;;;;;;;15.39;100.00;101308.13;4993945;28;20627;-77
2021/09/28 04:38:15;;;;;;;;;;;;;;;15.40;100.00;101312.56;4993996;28;20024;-77
2021/09/28 04:40:42;;;;;;;;;;;;;;;15.40;100.00;101306.25;4993873;28;20017;-77
2021/09/28 04:43:08;;;;;;;;;;;;;;;15.40;100.00;101308.97;4993794;28;20423;-77
2021/09/28 04:45:34;;;;;;;;;;;;;;;15.40;100.00;101308.97;4993858;28;19968;-76
2021/09/28 04:48:02;;;;;;;;;;;;;;;15.39;100.00;101310.88;4993786;28;20024;-76
2021/09/28 04:50:28;;;;;;;;;;;;;;;15.37;100.00;101315.59;4993632;28;20028;-75
2021/09/28 04:52:55;;;;;;;;;;;;;;;15.33;100.00;101307.84;4993366;28;20033;-75
2021/09/28 04:55:21;;;;;;;;;;;;;;;15.26;100.00;101320.31;4993512;28;19932;-76
2021/09/28 04:57:48;;;;;;;;;;;;;;;15.21;100.00;101309.81;4992464;28;19953;-76
2021/09/28 05:00:14;;;;;;;;;;;;;;;15.18;100.00;101310.97;4993299;28;20016;-75
2021/09/28 05:02:41;;;;;;;;;;;;;;;15.19;100.00;101323.63;4992817;28;20460;-75
2021/09/28 05:05:09;;;;;;;;;;;;;;;15.20;100.00;101319.03;4992613;28;20420;-75
2021/09/28 05:07:35;;;;;;;;;;;;;;;15.22;100.00;101325.22;4999224;28;20028;-75
2021/09/28 05:10:02;;;;;;;;;;;;;;;15.23;100.00;101327.81;4993457;28;19969;-75
2021/09/28 05:12:29;;;;;;;;;;;;;;;15.26;100.00;101329.41;4991559;28;20024;-75
2021/09/28 05:14:56;;;;;;;;;;;;;;;15.29;100.00;101336.47;5006928;28;19957;-75
2021/09/28 05:17:23;;;;;;;;;;;;;;;15.30;100.00;101341.78;4992573;28;19937;-75
2021/09/28 05:19:49;;;;;;;;;;;;;;;15.33;100.00;101346.97;4993202;28;20029;-75
2021/09/28 05:22:17;;;;;;;;;;;;;;;15.35;100.00;101344.97;4995709;28;20364;-76
2021/09/28 05:24:43;;;;;;;;;;;;;;;15.35;100.00;101347.72;4997439;28;20039;-76
2021/09/28 05:27:09;;;;;;;;;;;;;;;15.35;100.00;101344.97;4990715;28;20009;-75
2021/09/28 05:29:36;;;;;;;;;;;;;;;15.34;100.00;101347.81;5000365;28;20349;-76
2021/09/28 05:32:02;;;;;;;;;;;;;;;15.32;100.00;101355.31;5012242;28;19968;-75
2021/09/28 05:34:28;;;;;;;;;;;;;;;15.32;100.00;101361.66;5003406;28;20017;-75
2021/09/28 05:36:55;;;;;;;;;;;;;;;15.31;100.00;101359.06;4993786;28;19929;-75
2021/09/28 05:39:22;;;;;;;;;;;;;;;15.31;100.00;101375.47;4993941;28;20377;-75
2021/09/28 05:41:49;;;;;;;;;;;;;;;15.30;100.00;101373.72;4991356;28;19929;-75
2021/09/28 05:44:15;;;;;;;;;;;;;;;15.29;100.00;101378.34;5005875;28;20468;-75
2021/09/28 05:46:41;;;;;;;;;;;;;;;15.29;100.00;101378.34;5006125;28;19929;-75
2021/09/28 05:49:08;;;;;;;;;;;;;;;15.28;100.00;101375.75;5008825;28;20329;-75
2021/09/28 05:51:35;;;;;;;;;;;;;;;15.25;100.00;101376.06;4994414;28;19949;-74
2021/09/28 05:54:02;;;;;;;;;;;;;;;15.22;100.00;101379.94;5012091;28;20403;-74
2021/09/28 05:56:30;;;;;;;;;;;;;;;15.18;100.00;101371.13;5010848;28;19972;-74
2021/09/28 05:58:56;;;;;;;;;;;;;;;15.16;100.00;101377.72;5012010;28;20092;-75
2021/09/28 06:01:22;;;;;;;;;;;;;;;15.17;100.00;101380.31;4999702;28;20024;-75
2021/09/28 06:03:49;;;;;;;;;;;;;;;15.14;100.00;101380.63;4991984;28;20483;-76
2021/09/28 06:06:15;;;;;;;;;;;;;;;15.16;100.00;101383.22;5006585;28;20017;-74
2021/09/28 06:08:41;;;;;;;;;;;;;;;15.08;100.00;101389.34;5003308;28;19933;-75
2021/09/28 06:11:08;;;;;;;;;;;;;;;15.11;100.00;101405.47;5006687;28;20024;-75
2021/09/28 06:13:35;;;;;;;;;;;;;;;15.10;100.00;101400.16;4991103;28;20341;-75
2021/09/28 06:16:02;;;;;;;;;;;;;;;15.09;100.00;101399.31;5000926;28;20003;-75
2021/09/28 06:18:28;;;;;;;;;;;;;;;15.14;100.00;101407.06;5001336;28;19961;-75
2021/09/28 06:20:54;;;;;;;;;;;;;;;15.22;100.00;101399.91;5004266;28;19972;-75
2021/09/28 06:23:20;;;;;;;;;;;;;;;15.25;100.00;101403.41;5005890;28;19953;-75
2021/09/28 06:25:47;;;;;;;;;;;;;;;15.28;100.00;101406.69;5003274;28;20032;-75
2021/09/28 06:28:13;;;;;;;;;;;;;;;15.36;100.00;101406.88;5005023;28;20021;-76
2021/09/28 06:30:42;;;;;;;;;;;;;;;15.43;100.00;101398.97;4995959;28;19981;-76
2021/09/28 06:33:08;;;;;;;;;;;;;;;15.49;100.00;101403.88;4997352;28;19933;-75
2021/09/28 06:35:34;;;;;;;;;;;;;;;15.57;100.00;101409.50;5014576;28;19973;-75
2021/09/28 06:38:03;;;;;;;;;;;;;;;15.60;100.00;101413.84;5013950;28;19931;-75
2021/09/28 06:40:30;;;;;;;;;;;;;;;15.64;100.00;101412.53;5015373;28;20412;-76
2021/09/28 06:42:56;;;;;;;;;;;;;;;15.56;100.00;101413.25;5011368;28;20012;-76
2021/09/28 06:45:23;;;;;;;;;;;;;;;15.61;100.00;101414.72;4995825;28;20029;-75
2021/09/28 06:47:50;;;;;;;;;;;;;;;15.47;100.00;101414.09;4996812;28;20283;-75
2021/09/28 06:50:17;;;;;;;;;;;;;;;15.49;100.00;101422.19;5003319;28;20024;-75
2021/09/28 06:52:44;;;;;;;;;;;;;;;15.36;100.00;101419.69;5011636;28;20017;-74
2021/09/28 06:55:10;;;;;;;;;;;;;;;15.29;100.00;101424.00;4995820;28;20016;-74
2021/09/28 06:57:36;;;;;;;;;;;;;;;15.08;100.00;101408.50;4996214;28;20028;-76
2021/09/28 07:00:03;;;;;;;;;;;;;;;15.05;100.00;101426.03;5002948;28;20028;-75
2021/09/28 07:02:29;;;;;;;;;;;;;;;15.06;100.00;101426.91;4995655;28;20028;-74
2021/09/28 07:04:57;;;;;;;;;;;;;;;14.98;100.00;101426.72;5004568;28;20039;-75
2021/09/28 07:07:24;;;;;;;;;;;;;;;14.97;100.00;101422.28;5000606;28;20032;-75
2021/09/28 07:09:51;;;;;;;;;;;;;;;15.03;100.00;101433.53;5033864;28;20044;-74
2021/09/28 07:12:17;;;;;;;;;;;;;;;15.12;100.00;101434.56;5016796;28;20037;-75
2021/09/28 07:14:43;;;;;;;;;;;;;;;15.18;100.00;101449.56;5010090;28;20008;-75
2021/09/28 07:17:10;;;;;;;;;;;;;;;15.26;100.00;101452.47;5013430;28;20036;-75
2021/09/28 07:19:37;;;;;;;;;;;;;;;15.14;100.00;101451.72;5007290;28;19926;-74
2021/09/28 07:22:05;;;;;;;;;;;;;;;15.01;100.00;101460.13;4997789;28;20012;-75
2021/09/28 07:24:31;;;;;;;;;;;;;;;14.87;100.00;101461.34;4996144;28;20016;-74
2021/09/28 07:26:57;;;;;;;;;;;;;;;14.87;100.00;101458.63;5005682;28;20478;-74
2021/09/28 07:29:24;;;;;;;;;;;;;;;14.87;100.00;101461.34;4994963;28;20020;-75
2021/09/28 07:31:50;;;;;;;;;;;;;;;14.86;100.00;101462.34;4995919;28;19929;-76
2021/09/28 07:34:16;;;;;;;;;;;;;;;14.85;100.00;101467.97;4998361;28;19969;-76
2021/09/28 07:36:43;;;;;;;;;;;;;;;14.96;100.00;101469.75;5012521;28;20025;-76
2021/09/28 07:39:10;;;;;;;;;;;;;;;15.01;100.00;101486.59;5013463;28;20016;-75
2021/09/28 07:41:36;;;;;;;;;;;;;;;15.01;100.00;101486.59;5014181;28;20129;-75
2021/09/28 07:44:03;;;;;;;;;;;;;;;14.98;100.00;101481.38;5005206;28;20276;-75
2021/09/28 07:46:29;;;;;;;;;;;;;;;14.95;100.00;101484.41;4995654;28;20016;-75
2021/09/28 07:48:56;;;;;;;;;;;;;;;15.00;100.00;101485.72;4994866;28;20032;-74
2021/09/28 07:51:22;;;;;;;;;;;;;;;15.04;100.00;101489.06;5010630;28;20028;-75
2021/09/28 07:53:49;;;;;;;;;;;;;;;15.07;100.00;101483.31;5010580;28;20405;-74
2021/09/28 07:56:18;;;;;;;;;;;;;;;14.97;100.00;101487.88;5014335;28;19965;-75
2021/09/28 07:58:44;;;;;;;;;;;;;;;14.82;100.00;101484.63;5005186;28;19973;-76
2021/09/28 08:01:11;;;;;;;;;;;;;;;14.82;100.00;101501.03;5000422;28;20024;-75
2021/09/28 08:03:38;;;;;;;;;;;;;;;14.88;100.00;101495.91;4999791;28;19969;-75
2021/09/28 08:06:04;;;;;;;;;;;;;;;14.88;100.00;101501.38;5005652;28;20340;-75
2021/09/28 08:08:30;;;;;;;;;;;;;;;14.91;100.00;101505.66;5006926;28;20028;-75
2021/09/28 08:10:57;;;;;;;;;;;;;;;14.91;100.00;101513.88;5014044;28;19932;-74
2021/09/28 08:13:25;;;;;;;;;;;;;;;14.99;100.00;101518.66;5003254;28;20408;-75
2021/09/28 08:15:51;;;;;;;;;;;;;;;14.97;100.00;101517.94;5010357;28;19929;-74
2021/09/28 08:18:17;;;;;;;;;;;;;;;14.93;100.00;101524.69;5003676;28;19957;-75
2021/09/28 08:20:44;;;;;;;;;;;;;;;14.92;100.00;101533.88;4999391;28;20456;-75
2021/09/28 08:23:10;;;;;;;;;;;;;;;14.83;100.00;101527.34;5015005;28;20024;-75
2021/09/28 08:25:48;;;;;;;;;;;;;;;14.77;100.00;101531.47;4999023;28;20485;-75
2021/09/28 08:31:00;;;;;;;;;;;;;;;14.87;100.00;101543.34;4999258;28;19926;-74
2021/09/28 08:33:26;;;;;;;;;;;;;;;14.89;100.00;101538.59;5000029;28;20440;-74
2021/09/28 08:35:52;;;;;;;;;;;;;;;14.87;100.00;101539.72;5005929;28;20025;-75
2021/09/28 08:38:18;;;;;;;;;;;;;;;14.71;100.00;101543.81;5020148;28;19926;-74
2021/09/28 08:40:45;;;;;;;;;;;;;;;14.45;100.00;101559.66;5006134;28;20025;-74
2021/09/28 08:43:11;;;;;;;;;;;;;;;14.32;100.00;101567.16;4993568;28;19972;-74
2021/09/28 08:45:37;;;;;;;;;;;;;;;14.31;100.00;101573.59;4999759;28;20397;-73
2021/09/28 08:48:05;;;;;;;;;;;;;;;14.21;100.00;101574.38;4999043;28;20459;-73
2021/09/28 08:50:32;;;;;;;;;;;;;;;14.18;100.00;101582.81;4998587;28;19925;-73
2021/09/28 08:52:58;;;;;;;;;;;;;;;14.16;100.00;101587.56;5000097;28;20012;-72
2021/09/28 08:55:24;;;;;;;;;;;;;;;14.10;100.00;101593.50;4998679;28;20368;-73
2021/09/28 08:57:51;;;;;;;;;;;;;;;14.07;100.00;101591.91;4993141;28;20404;-73
2021/09/28 09:00:21;;;;;;;;;;;;;;;14.11;100.00;101595.25;4995237;28;19930;-72
2021/09/28 09:02:48;;;;;;;;;;;;;;;14.19;100.00;101591.88;5006993;28;19969;-73
2021/09/28 09:05:17;;;;;;;;;;;;;;;14.33;100.00;101593.47;5000816;28;20308;-74
2021/09/28 09:07:43;;;;;;;;;;;;;;;14.38;100.00;101591.22;4993158;28;20366;-73
2021/09/28 09:10:10;;;;;;;;;;;;;;;14.42;100.00;101591.81;4997749;28;20037;-74
2021/09/28 09:12:39;;;;;;;;;;;;;;;14.56;100.00;101597.88;4992991;28;20013;-74
2021/09/28 09:15:19;;;;;;;;;;;;;;;14.71;100.00;101603.94;4993049;28;19953;-73
2021/09/28 09:17:45;;;;;;;;;;;;;;;14.87;100.00;101610.81;4995513;28;20328;-75
2021/09/28 09:20:42;;;;;;;;;;;;;;;14.92;100.00;101604.97;4994097;28;19926;-74
2021/09/28 09:23:22;;;;;;;;;;;;;;;14.85;100.00;101596.41;4951863;29;20088;-74
2021/09/28 09:25:56;;;;;;;;;;;;;;;14.82;100.00;101592.06;4988443;28;20095;-74
2021/09/28 09:28:30;;;;;;;;;;;;;;;14.80;100.00;101591.31;5010861;28;19968;-75
2021/09/28 09:31:05;;;;;;;;;;;;;;;14.65;100.00;101593.50;5008855;28;19926;-74
2021/09/28 09:33:32;;;;;;;;;;;;;;;14.60;100.00;101590.25;5005761;28;20360;-75
2021/09/28 09:35:59;;;;;;;;;;;;;;;14.70;100.00;101601.34;5006688;28;19925;-74
2021/09/28 09:38:27;;;;;;;;;;;;;;;14.79;100.00;101595.09;5014539;28;20385;-74
2021/09/28 09:40:53;;;;;;;;;;;;;;;14.80;100.00;101590.47;5003642;28;19929;-74
2021/09/28 09:43:29;;;;;;;;;;;;;;;14.94;100.00;101601.09;4992642;28;20305;-74
2021/09/28 09:46:06;;;;;;;;;;;;;;;15.14;100.00;101598.47;5025999;28;20092;-74
2021/09/28 09:48:34;;;;;;;;;;;;;;;15.21;100.00;101596.97;5006844;28;20016;-75
2021/09/28 09:51:03;;;;;;;;;;;;;;;15.36;100.00;101594.75;4992320;28;20013;-75
2021/09/28 09:53:31;;;;;;;;;;;;;;;15.40;100.00;101590.75;5000431;28;20349;-75
2021/09/28 09:55:58;;;;;;;;;;;;;;;15.50;100.00;101593.50;5011221;28;19926;-74
2021/09/28 09:58:24;;;;;;;;;;;;;;;15.62;100.00;101591.56;5012096;28;19925;-74
2021/09/28 10:00:53;;;;;;;;;;;;;;;15.46;100.00;101590.22;4996436;28;20397;-75
2021/09/28 10:03:19;;;;;;;;;;;;;;;15.30;100.00;101584.34;4992211;28;20004;-74
2021/09/28 10:05:45;;;;;;;;;;;;;;;15.30;100.00;101589.81;4996046;28;19958;-74
2021/09/28 10:08:13;;;;;;;;;;;;;;;15.40;100.00;101593.47;4991053;28;20032;-75
2021/09/28 10:10:41;;;;;;;;;;;;;;;15.42;100.00;101591.47;4995454;28;19925;-75
2021/09/28 10:13:07;;;;;;;;;;;;;;;15.43;100.00;101598.66;4992206;28;20006;-75
2021/09/28 10:15:35;;;;;;;;;;;;;;;15.44;100.00;101588.59;5001830;28;20028;-74
2021/09/28 10:18:01;;;;;;;;;;;;;;;15.33;100.00;101589.56;4995180;28;20009;-74
2021/09/28 10:20:29;;;;;;;;;;;;;;;15.19;100.00;101588.00;4995283;28;19930;-74
2021/09/28 10:22:57;;;;;;;;;;;;;;;15.26;100.00;101593.81;4997899;28;20392;-74
2021/09/28 10:25:26;;;;;;;;;;;;;;;15.28;100.00;101595.41;4995294;28;20293;-74
2021/09/28 10:27:54;;;;;;;;;;;;;;;15.36;100.00;101602.94;5001736;28;20035;-74
2021/09/28 10:30:36;;;;;;;;;;;;;;;15.22;100.00;101591.34;5004918;28;20036;-75
2021/09/28 10:33:03;;;;;;;;;;;;;;;15.09;100.00;101596.16;5007597;28;19962;-75
2021/09/28 10:35:30;;;;;;;;;;;;;;;15.08;100.00;101594.41;4992017;28;20017;-75
2021/09/28 10:37:57;;;;;;;;;;;;;;;14.96;100.00;101593.59;4991727;28;20028;-75
2021/09/28 10:40:42;;;;;;;;;;;;;;;14.99;100.00;101589.75;4991760;28;20308;-74
2021/09/28 10:43:24;;;;;;;;;;;;;;;14.99;100.00;101611.63;4993899;28;20024;-74
2021/09/28 10:45:51;;;;;;;;;;;;;;;15.05;100.00;101600.16;5005178;28;20371;-74
2021/09/28 10:48:31;;;;;;;;;;;;;;;15.10;100.00;101600.63;5002500;28;20040;-73
2021/09/28 10:51:12;;;;;;;;;;;;;;;15.21;100.00;101600.56;4994134;28;20037;-74
2021/09/28 10:53:40;;;;;;;;;;;;;;;15.22;100.00;101591.34;5012532;28;19933;-73
2021/09/28 10:56:08;;;;;;;;;;;;;;;15.39;100.00;101592.63;5011708;28;20028;-74
2021/09/28 10:58:52;;;;;;;;;;;;;;;15.64;100.00;101606.00;4990819;28;19926;-74
2021/09/28 11:01:19;;;;;;;;;;;;;;;15.75;100.00;101597.66;5012831;28;20008;-73
2021/09/28 11:03:58;;;;;;;;;;;;;;;15.84;100.00;101590.56;5021615;28;19931;-73
2021/09/28 11:06:43;;;;;;;;;;;;;;;15.99;100.00;101591.03;5007662;28;19925;-73
2021/09/28 11:09:09;;;;;;;;;;;;;;;16.05;100.00;101594.06;5012950;28;20374;-73
2021/09/28 11:11:35;;;;;;;;;;;;;;;16.19;100.00;101595.56;5011161;28;19925;-73
2021/09/28 11:14:04;;;;;;;;;;;;;;;16.03;100.00;101578.78;5010928;28;20020;-75
2021/09/28 11:16:38;;;;;;;;;;;;;;;16.06;100.00;101584.88;4995063;28;19973;-74
2021/09/28 11:19:05;;;;;;;;;;;;;;;16.11;100.00;101592.63;4996624;28;20012;-74
2021/09/28 11:21:31;;;;;;;;;;;;;;;16.09;100.00;101585.56;5014645;28;20025;-73
2021/09/28 11:23:58;;;;;;;;;;;;;;;16.19;100.00;101590.09;5013860;28;20293;-73
2021/09/28 11:26:30;;;;;;;;;;;;;;;16.19;100.00;101595.56;4995187;28;19972;-73
2021/09/28 11:28:57;;;;;;;;;;;;;;;16.19;100.00;101601.06;4995044;28;20019;-74
2021/09/28 11:31:30;;;;;;;;;;;;;;;16.23;100.00;101596.13;5007730;28;19932;-74
2021/09/28 11:34:00;;;;;;;;;;;;;;;16.27;100.00;101588.50;5012688;28;20412;-75
2021/09/28 11:36:30;;;;;;;;;;;;;;;16.32;100.00;101589.81;5014473;28;19925;-74
2021/09/28 11:38:56;;;;;;;;;;;;;;;16.37;100.00;101589.41;5012778;28;20024;-74
2021/09/28 11:41:23;;;;;;;;;;;;;;;16.49;100.00;101595.59;5014739;28;20020;-74
2021/09/28 11:43:50;;;;;;;;;;;;;;;16.53;100.00;101580.63;5012395;28;20352;-74
2021/09/28 11:46:17;;;;;;;;;;;;;;;16.44;100.00;101576.84;4994428;28;20012;-75
2021/09/28 11:48:47;;;;;;;;;;;;;;;16.45;100.00;101589.56;4994884;28;19964;-74
2021/09/28 11:51:14;;;;;;;;;;;;;;;16.36;100.00;101585.78;4993700;28;19948;-74
2021/09/28 11:53:40;;;;;;;;;;;;;;;16.27;100.00;101580.28;4996000;28;20016;-74
2021/09/28 11:56:07;;;;;;;;;;;;;;;16.23;100.00;101588.81;5004128;28;20369;-74
2021/09/28 11:58:34;;;;;;;;;;;;;;;16.33;100.00;101590.69;5001419;28;19934;-74
2021/09/28 12:01:00;;;;;;;;;;;;;;;16.44;100.00;101585.06;5013981;28;20028;-74
2021/09/28 12:03:27;;;;;;;;;;;;;;;16.54;100.00;101579.59;5014518;28;20584;-74
2021/09/28 12:06:03;;;;;;;;;;;;;;;16.67;100.00;101580.19;5012854;28;19965;-74
2021/09/28 12:08:32;;;;;;;;;;;;;;;16.75;100.00;101576.72;5017983;28;19968;-74
2021/09/28 12:11:01;;;;;;;;;;;;;;;16.86;100.00;101579.34;5008791;28;20021;-74
2021/09/28 12:13:28;;;;;;;;;;;;;;;17.01;100.00;101574.28;4994278;28;20376;-74
2021/09/28 12:16:01;;;;;;;;;;;;;;;17.13;100.00;101566.78;5009151;28;19929;-74
2021/09/28 12:18:27;;;;;;;;;;;;;;;17.33;100.00;101572.19;5013657;28;20012;-74
2021/09/28 12:21:08;;;;;;;;;;;;;;;17.44;100.00;101563.78;4996804;28;20452;-75
2021/09/28 12:23:34;;;;;;;;;;;;;;;17.54;100.00;101559.16;5006244;28;19956;-75
2021/09/28 12:26:01;;;;;;;;;;;;;;;17.53;100.00;101554.66;5011475;28;20377;-75
2021/09/28 12:28:30;;;;;;;;;;;;;;;17.56;100.00;101557.09;5011156;28;20016;-74
2021/09/28 12:30:58;;;;;;;;;;;;;;;17.66;100.00;101562.53;5006068;28;19963;-74
2021/09/28 12:33:24;;;;;;;;;;;;;;;17.71;100.00;101570.34;5004211;28;19925;-74